sensor_id;sensor_type;location;lat;lon;timestamp;temperature;humidity
12434;DHT22;6281;49.038;8.372;2024-01-11T00:02:08;-2.10;99.90
12434;DHT22;6281;49.038;8.372;2024-01-11T00:04:35;-2.10;99.90
12434;DHT22;6281;49.038;8.372;2024-01-11T00:07:02;-2.00;99.90
12434;DHT22;6281;49.038;8.372;2024-01-11T00:09:28;-2.10;99.90
12434;DHT22;6281;49.038;8.372;2024-01-11T00:11:55;-2.10;99.90
12434;DHT22;6281;49.038;8.372;2024-01-11T00:14:22;-2.10;99.90
12434;DHT22;6281;49.038;8.372;2024-01-11T00:16:49;-2.00;99.90
12434;DHT22;6281;49.038;8.372;2024-01-11T00:19:19;-2.00;99.90
12434;DHT22;6281;49.038;8.372;2024-01-11T00:21:46;-2.00;99.90
12434;DHT22;6281;49.038;8.372;2024-01-11T00:24:13;-2.00;99.90
12434;DHT22;6281;49.038;8.372;2024-01-11T00:26:40;-2.10;99.90
12434;DHT22;6281;49.038;8.372;2024-01-11T00:29:07;-2.10;99.90
12434;DHT22;6281;49.038;8.372;2024-01-11T00:31:34;-2.00;99.90
12434;DHT22;6281;49.038;8.372;2024-01-11T00:34:01;-2.20;99.90
12434;DHT22;6281;49.038;8.372;2024-01-11T00:36:29;-2.20;99.90
12434;DHT22;6281;49.038;8.372;2024-01-11T00:38:58;-2.10;99.90
12434;DHT22;6281;49.038;8.372;2024-01-11T00:41:25;-2.40;99.90
12434;DHT22;6281;49.038;8.372;2024-01-11T00:43:52;-2.30;99.90
12434;DHT22;6281;49.038;8.372;2024-01-11T00:46:20;-2.20;99.90
12434;DHT22;6281;49.038;8.372;2024-01-11T00:48:47;-2.30;99.90
12434;DHT22;6281;49.038;8.372;2024-01-11T00:51:15;-2.30;99.90
12434;DHT22;6281;49.038;8.372;2024-01-11T00:53:43;-2.30;99.90
12434;DHT22;6281;49.038;8.372;2024-01-11T00:56:15;-2.30;99.90
12434;DHT22;6281;49.038;8.372;2024-01-11T00:58:42;-2.30;99.90
12434;DHT22;6281;49.038;8.372;2024-01-11T01:01:09;-2.30;99.90
12434;DHT22;6281;49.038;8.372;2024-01-11T01:03:36;-2.20;99.90
12434;DHT22;6281;49.038;8.372;2024-01-11T01:06:04;-2.20;99.90
12434;DHT22;6281;49.038;8.372;2024-01-11T01:08:31;-2.20;99.90
12434;DHT22;6281;49.038;8.372;2024-01-11T01:10:59;-2.30;99.90
12434;DHT22;6281;49.038;8.372;2024-01-11T01:13:26;-2.50;99.90
12434;DHT22;6281;49.038;8.372;2024-01-11T01:15:53;-2.40;99.90
12434;DHT22;6281;49.038;8.372;2024-01-11T01:18:20;-2.50;99.90
12434;DHT22;6281;49.038;8.372;2024-01-11T01:20:46;-2.40;99.90
12434;DHT22;6281;49.038;8.372;2024-01-11T01:23:13;-2.30;99.90
12434;DHT22;6281;49.038;8.372;2024-01-11T01:25:40;-2.40;99.90
12434;DHT22;6281;49.038;8.372;2024-01-11T01:28:08;-2.40;99.90
12434;DHT22;6281;49.038;8.372;2024-01-11T01:30:35;-2.40;99.90
12434;DHT22;6281;49.038;8.372;2024-01-11T01:33:03;-2.40;99.90
12434;DHT22;6281;49.038;8.372;2024-01-11T01:35:29;-2.40;99.90
12434;DHT22;6281;49.038;8.372;2024-01-11T01:37:56;-2.50;99.90
12434;DHT22;6281;49.038;8.372;2024-01-11T01:40:23;-2.60;99.90
12434;DHT22;6281;49.038;8.372;2024-01-11T01:42:50;-2.60;99.90
12434;DHT22;6281;49.038;8.372;2024-01-11T01:45:25;-2.60;99.90
12434;DHT22;6281;49.038;8.372;2024-01-11T01:47:53;-2.60;99.90
12434;DHT22;6281;49.038;8.372;2024-01-11T01:50:21;-2.60;99.90
12434;DHT22;6281;49.038;8.372;2024-01-11T01:52:49;-2.70;99.90
12434;DHT22;6281;49.038;8.372;2024-01-11T01:55:17;-2.70;99.90
12434;DHT22;6281;49.038;8.372;2024-01-11T01:57:46;-2.70;99.90
12434;DHT22;6281;49.038;8.372;2024-01-11T02:00:14;-2.70;99.90
12434;DHT22;6281;49.038;8.372;2024-01-11T02:02:44;-2.60;99.90
12434;DHT22;6281;49.038;8.372;2024-01-11T02:05:13;-2.70;99.90
12434;DHT22;6281;49.038;8.372;2024-01-11T02:07:40;-2.70;99.90
12434;DHT22;6281;49.038;8.372;2024-01-11T02:10:08;-2.70;99.90
12434;DHT22;6281;49.038;8.372;2024-01-11T02:12:36;-2.70;99.90
12434;DHT22;6281;49.038;8.372;2024-01-11T02:15:04;-2.70;99.90
12434;DHT22;6281;49.038;8.372;2024-01-11T02:17:31;-2.80;99.90
12434;DHT22;6281;49.038;8.372;2024-01-11T02:20:00;-2.80;99.90
12434;DHT22;6281;49.038;8.372;2024-01-11T02:22:30;-2.70;99.90
12434;DHT22;6281;49.038;8.372;2024-01-11T02:25:00;-2.60;99.90
12434;DHT22;6281;49.038;8.372;2024-01-11T02:27:27;-2.60;99.90
12434;DHT22;6281;49.038;8.372;2024-01-11T02:29:54;-2.70;99.90
12434;DHT22;6281;49.038;8.372;2024-01-11T02:32:22;-2.70;99.90
12434;DHT22;6281;49.038;8.372;2024-01-11T02:34:49;-2.60;99.90
12434;DHT22;6281;49.038;8.372;2024-01-11T02:37:16;-2.70;99.90
12434;DHT22;6281;49.038;8.372;2024-01-11T02:39:43;-2.70;99.90
12434;DHT22;6281;49.038;8.372;2024-01-11T02:42:12;-2.80;99.90
12434;DHT22;6281;49.038;8.372;2024-01-11T02:44:39;-2.80;99.90
12434;DHT22;6281;49.038;8.372;2024-01-11T02:47:06;-2.90;99.90
12434;DHT22;6281;49.038;8.372;2024-01-11T02:49:33;-2.90;99.90
12434;DHT22;6281;49.038;8.372;2024-01-11T02:51:59;-2.90;99.90
12434;DHT22;6281;49.038;8.372;2024-01-11T02:54:26;-3.00;99.90
12434;DHT22;6281;49.038;8.372;2024-01-11T02:56:53;-3.00;99.90
12434;DHT22;6281;49.038;8.372;2024-01-11T02:59:24;-2.90;99.90
12434;DHT22;6281;49.038;8.372;2024-01-11T03:01:51;-2.90;99.90
12434;DHT22;6281;49.038;8.372;2024-01-11T03:04:18;-2.90;99.90
12434;DHT22;6281;49.038;8.372;2024-01-11T03:06:45;-3.00;99.90
12434;DHT22;6281;49.038;8.372;2024-01-11T03:09:11;-3.10;99.90
12434;DHT22;6281;49.038;8.372;2024-01-11T03:11:38;-3.10;99.90
12434;DHT22;6281;49.038;8.372;2024-01-11T03:14:06;-3.10;99.90
12434;DHT22;6281;49.038;8.372;2024-01-11T03:16:34;-3.20;99.90
12434;DHT22;6281;49.038;8.372;2024-01-11T03:19:01;-3.00;99.90
12434;DHT22;6281;49.038;8.372;2024-01-11T03:21:28;-3.00;99.90
12434;DHT22;6281;49.038;8.372;2024-01-11T03:23:55;-3.20;99.90
12434;DHT22;6281;49.038;8.372;2024-01-11T03:26:22;-3.20;99.90
12434;DHT22;6281;49.038;8.372;2024-01-11T03:28:49;-3.20;99.90
12434;DHT22;6281;49.038;8.372;2024-01-11T03:31:16;-3.10;99.90
12434;DHT22;6281;49.038;8.372;2024-01-11T03:33:44;-3.10;99.90
12434;DHT22;6281;49.038;8.372;2024-01-11T03:36:12;-3.10;99.90
12434;DHT22;6281;49.038;8.372;2024-01-11T03:38:39;-3.30;99.90
12434;DHT22;6281;49.038;8.372;2024-01-11T03:41:08;-3.00;99.90
12434;DHT22;6281;49.038;8.372;2024-01-11T03:43:35;-3.10;99.90
12434;DHT22;6281;49.038;8.372;2024-01-11T03:46:02;-3.10;99.90
12434;DHT22;6281;49.038;8.372;2024-01-11T03:48:29;-3.10;99.90
12434;DHT22;6281;49.038;8.372;2024-01-11T03:50:57;-3.00;99.90
12434;DHT22;6281;49.038;8.372;2024-01-11T03:53:24;-3.10;99.90
12434;DHT22;6281;49.038;8.372;2024-01-11T03:55:51;-3.00;99.90
12434;DHT22;6281;49.038;8.372;2024-01-11T03:58:17;-3.20;99.90
12434;DHT22;6281;49.038;8.372;2024-01-11T04:00:45;-3.10;99.90
12434;DHT22;6281;49.038;8.372;2024-01-11T04:03:11;-3.00;99.90
12434;DHT22;6281;49.038;8.372;2024-01-11T04:05:38;-3.00;99.90
12434;DHT22;6281;49.038;8.372;2024-01-11T04:08:07;-3.00;99.90
12434;DHT22;6281;49.038;8.372;2024-01-11T04:10:34;-2.90;99.90
12434;DHT22;6281;49.038;8.372;2024-01-11T04:13:01;-2.90;99.90
12434;DHT22;6281;49.038;8.372;2024-01-11T04:15:28;-2.90;99.90
12434;DHT22;6281;49.038;8.372;2024-01-11T04:17:55;-3.00;99.90
12434;DHT22;6281;49.038;8.372;2024-01-11T04:20:22;-3.20;99.90
12434;DHT22;6281;49.038;8.372;2024-01-11T04:22:49;-3.10;99.90
12434;DHT22;6281;49.038;8.372;2024-01-11T04:25:18;-3.00;99.90
12434;DHT22;6281;49.038;8.372;2024-01-11T04:27:46;-3.30;99.90
12434;DHT22;6281;49.038;8.372;2024-01-11T04:30:13;-3.20;99.90
12434;DHT22;6281;49.038;8.372;2024-01-11T04:32:39;-3.10;99.90
12434;DHT22;6281;49.038;8.372;2024-01-11T04:35:07;-3.00;99.90
12434;DHT22;6281;49.038;8.372;2024-01-11T04:37:34;-3.00;99.90
12434;DHT22;6281;49.038;8.372;2024-01-11T04:40:02;-2.90;99.90
12434;DHT22;6281;49.038;8.372;2024-01-11T04:42:30;-2.90;99.90
12434;DHT22;6281;49.038;8.372;2024-01-11T04:44:57;-2.90;99.90
12434;DHT22;6281;49.038;8.372;2024-01-11T04:47:24;-2.90;99.90
12434;DHT22;6281;49.038;8.372;2024-01-11T04:49:51;-2.90;99.90
12434;DHT22;6281;49.038;8.372;2024-01-11T04:52:18;-3.00;99.90
12434;DHT22;6281;49.038;8.372;2024-01-11T04:54:45;-3.00;99.90
12434;DHT22;6281;49.038;8.372;2024-01-11T04:57:12;-3.20;99.90
12434;DHT22;6281;49.038;8.372;2024-01-11T04:59:40;-3.10;99.90
12434;DHT22;6281;49.038;8.372;2024-01-11T05:02:07;-3.10;99.90
12434;DHT22;6281;49.038;8.372;2024-01-11T05:04:34;-3.00;99.90
12434;DHT22;6281;49.038;8.372;2024-01-11T05:07:01;-3.20;99.90
12434;DHT22;6281;49.038;8.372;2024-01-11T05:09:28;-3.10;99.90
12434;DHT22;6281;49.038;8.372;2024-01-11T05:11:55;-3.20;99.90
12434;DHT22;6281;49.038;8.372;2024-01-11T05:14:22;-3.20;99.90
12434;DHT22;6281;49.038;8.372;2024-01-11T05:16:50;-3.20;99.90
12434;DHT22;6281;49.038;8.372;2024-01-11T05:19:17;-3.20;99.90
12434;DHT22;6281;49.038;8.372;2024-01-11T05:21:44;-3.20;99.90
12434;DHT22;6281;49.038;8.372;2024-01-11T05:24:11;-3.20;99.90
12434;DHT22;6281;49.038;8.372;2024-01-11T05:26:38;-3.20;99.90
12434;DHT22;6281;49.038;8.372;2024-01-11T05:29:05;-3.30;99.90
12434;DHT22;6281;49.038;8.372;2024-01-11T05:31:32;-3.50;99.90
12434;DHT22;6281;49.038;8.372;2024-01-11T05:34:00;-3.40;99.90
12434;DHT22;6281;49.038;8.372;2024-01-11T05:36:27;-3.40;99.90
12434;DHT22;6281;49.038;8.372;2024-01-11T05:38:54;-3.20;99.90
12434;DHT22;6281;49.038;8.372;2024-01-11T05:41:21;-3.30;99.90
12434;DHT22;6281;49.038;8.372;2024-01-11T05:43:48;-3.20;99.90
12434;DHT22;6281;49.038;8.372;2024-01-11T05:46:15;-3.30;99.90
12434;DHT22;6281;49.038;8.372;2024-01-11T05:48:42;-3.30;99.90
12434;DHT22;6281;49.038;8.372;2024-01-11T05:51:10;-3.40;99.90
12434;DHT22;6281;49.038;8.372;2024-01-11T05:53:37;-3.20;99.90
12434;DHT22;6281;49.038;8.372;2024-01-11T05:56:07;-3.30;99.90
12434;DHT22;6281;49.038;8.372;2024-01-11T05:58:35;-3.40;99.90
12434;DHT22;6281;49.038;8.372;2024-01-11T06:01:03;-3.30;99.90
12434;DHT22;6281;49.038;8.372;2024-01-11T06:03:30;-3.30;99.90
12434;DHT22;6281;49.038;8.372;2024-01-11T06:05:59;-3.30;99.90
12434;DHT22;6281;49.038;8.372;2024-01-11T06:08:29;-3.30;99.90
12434;DHT22;6281;49.038;8.372;2024-01-11T06:10:56;-3.40;99.90
12434;DHT22;6281;49.038;8.372;2024-01-11T06:13:23;-3.50;99.90
12434;DHT22;6281;49.038;8.372;2024-01-11T06:15:49;-3.40;99.90
12434;DHT22;6281;49.038;8.372;2024-01-11T06:18:16;-3.40;99.90
12434;DHT22;6281;49.038;8.372;2024-01-11T06:20:43;-3.40;99.90
12434;DHT22;6281;49.038;8.372;2024-01-11T06:23:10;-3.40;99.90
12434;DHT22;6281;49.038;8.372;2024-01-11T06:25:38;-3.30;99.90
12434;DHT22;6281;49.038;8.372;2024-01-11T06:28:06;-3.40;99.90
12434;DHT22;6281;49.038;8.372;2024-01-11T06:30:35;-3.40;99.90
12434;DHT22;6281;49.038;8.372;2024-01-11T06:33:02;-3.30;99.90
12434;DHT22;6281;49.038;8.372;2024-01-11T06:35:29;-3.40;99.90
12434;DHT22;6281;49.038;8.372;2024-01-11T06:37:56;-3.30;99.90
12434;DHT22;6281;49.038;8.372;2024-01-11T06:40:23;-3.50;99.90
12434;DHT22;6281;49.038;8.372;2024-01-11T06:42:52;-3.60;99.90
12434;DHT22;6281;49.038;8.372;2024-01-11T06:45:19;-3.70;99.90
12434;DHT22;6281;49.038;8.372;2024-01-11T06:47:46;-3.50;99.90
12434;DHT22;6281;49.038;8.372;2024-01-11T06:50:14;-3.40;99.90
12434;DHT22;6281;49.038;8.372;2024-01-11T06:52:41;-3.40;99.90
12434;DHT22;6281;49.038;8.372;2024-01-11T06:55:08;-3.50;99.90
12434;DHT22;6281;49.038;8.372;2024-01-11T06:57:36;-3.50;99.90
12434;DHT22;6281;49.038;8.372;2024-01-11T07:00:06;-3.50;99.90
12434;DHT22;6281;49.038;8.372;2024-01-11T07:02:34;-3.40;99.90
12434;DHT22;6281;49.038;8.372;2024-01-11T07:05:01;-3.40;99.90
12434;DHT22;6281;49.038;8.372;2024-01-11T07:07:28;-3.40;99.90
12434;DHT22;6281;49.038;8.372;2024-01-11T07:09:55;-3.40;99.90
12434;DHT22;6281;49.038;8.372;2024-01-11T07:12:22;-3.40;99.90
12434;DHT22;6281;49.038;8.372;2024-01-11T07:14:49;-3.40;99.90
12434;DHT22;6281;49.038;8.372;2024-01-11T07:17:17;-3.30;99.90
12434;DHT22;6281;49.038;8.372;2024-01-11T07:19:44;-3.30;99.90
12434;DHT22;6281;49.038;8.372;2024-01-11T07:22:11;-3.30;99.90
12434;DHT22;6281;49.038;8.372;2024-01-11T07:24:38;-3.70;99.90
12434;DHT22;6281;49.038;8.372;2024-01-11T07:27:05;-3.70;99.90
12434;DHT22;6281;49.038;8.372;2024-01-11T07:29:32;-4.50;99.90
12434;DHT22;6281;49.038;8.372;2024-01-11T07:31:59;-4.00;99.90
12434;DHT22;6281;49.038;8.372;2024-01-11T07:34:28;-3.70;99.90
12434;DHT22;6281;49.038;8.372;2024-01-11T07:36:54;-3.70;99.90
12434;DHT22;6281;49.038;8.372;2024-01-11T07:39:22;-3.90;99.90
12434;DHT22;6281;49.038;8.372;2024-01-11T07:41:50;-3.80;99.90
12434;DHT22;6281;49.038;8.372;2024-01-11T07:44:18;-3.40;99.90
12434;DHT22;6281;49.038;8.372;2024-01-11T07:46:45;-3.40;99.90
12434;DHT22;6281;49.038;8.372;2024-01-11T07:49:12;-3.40;99.90
12434;DHT22;6281;49.038;8.372;2024-01-11T07:51:41;-3.40;99.90
12434;DHT22;6281;49.038;8.372;2024-01-11T07:54:08;-3.80;99.90
12434;DHT22;6281;49.038;8.372;2024-01-11T07:56:34;-3.50;99.90
12434;DHT22;6281;49.038;8.372;2024-01-11T07:59:01;-3.40;99.90
12434;DHT22;6281;49.038;8.372;2024-01-11T08:01:28;-3.40;99.90
12434;DHT22;6281;49.038;8.372;2024-01-11T08:03:55;-3.30;99.90
12434;DHT22;6281;49.038;8.372;2024-01-11T08:06:22;-3.40;99.90
12434;DHT22;6281;49.038;8.372;2024-01-11T08:08:51;-3.20;99.90
12434;DHT22;6281;49.038;8.372;2024-01-11T08:11:18;-3.00;99.90
12434;DHT22;6281;49.038;8.372;2024-01-11T08:13:45;-3.00;99.90
12434;DHT22;6281;49.038;8.372;2024-01-11T08:16:15;-3.10;99.90
12434;DHT22;6281;49.038;8.372;2024-01-11T08:18:43;-3.20;99.90
12434;DHT22;6281;49.038;8.372;2024-01-11T08:21:11;-3.20;99.90
12434;DHT22;6281;49.038;8.372;2024-01-11T08:23:39;-3.20;99.90
12434;DHT22;6281;49.038;8.372;2024-01-11T08:26:11;-3.30;99.90
12434;DHT22;6281;49.038;8.372;2024-01-11T08:28:39;-3.20;99.90
12434;DHT22;6281;49.038;8.372;2024-01-11T08:31:06;-3.30;99.90
12434;DHT22;6281;49.038;8.372;2024-01-11T08:33:34;-3.10;99.90
12434;DHT22;6281;49.038;8.372;2024-01-11T08:36:02;-3.00;99.90
12434;DHT22;6281;49.038;8.372;2024-01-11T08:38:29;-3.20;99.90
12434;DHT22;6281;49.038;8.372;2024-01-11T08:40:57;-2.80;99.90
12434;DHT22;6281;49.038;8.372;2024-01-11T08:43:27;-2.60;99.90
12434;DHT22;6281;49.038;8.372;2024-01-11T08:45:54;-2.50;99.90
12434;DHT22;6281;49.038;8.372;2024-01-11T08:48:21;-2.50;99.90
12434;DHT22;6281;49.038;8.372;2024-01-11T08:50:48;-2.50;99.90
12434;DHT22;6281;49.038;8.372;2024-01-11T08:53:15;-2.50;99.90
12434;DHT22;6281;49.038;8.372;2024-01-11T08:55:43;-2.50;99.90
12434;DHT22;6281;49.038;8.372;2024-01-11T08:58:10;-2.50;99.90
12434;DHT22;6281;49.038;8.372;2024-01-11T09:00:39;-2.50;99.90
12434;DHT22;6281;49.038;8.372;2024-01-11T09:03:06;-2.40;99.90
12434;DHT22;6281;49.038;8.372;2024-01-11T09:05:33;-2.40;99.90
12434;DHT22;6281;49.038;8.372;2024-01-11T09:07:59;-2.40;99.90
12434;DHT22;6281;49.038;8.372;2024-01-11T09:10:26;-2.20;99.90
12434;DHT22;6281;49.038;8.372;2024-01-11T09:12:54;-2.00;99.90
12434;DHT22;6281;49.038;8.372;2024-01-11T09:15:21;-1.90;99.90
12434;DHT22;6281;49.038;8.372;2024-01-11T09:17:49;-1.90;99.90
12434;DHT22;6281;49.038;8.372;2024-01-11T09:20:16;-2.00;99.90
12434;DHT22;6281;49.038;8.372;2024-01-11T09:22:44;-2.10;99.90
12434;DHT22;6281;49.038;8.372;2024-01-11T09:25:12;-2.00;99.90
12434;DHT22;6281;49.038;8.372;2024-01-11T09:27:39;-1.50;99.90
12434;DHT22;6281;49.038;8.372;2024-01-11T09:30:07;-1.70;99.90
12434;DHT22;6281;49.038;8.372;2024-01-11T09:32:34;-1.70;99.90
12434;DHT22;6281;49.038;8.372;2024-01-11T09:35:03;-1.90;99.90
12434;DHT22;6281;49.038;8.372;2024-01-11T09:37:30;-1.70;99.90
12434;DHT22;6281;49.038;8.372;2024-01-11T09:39:57;-1.70;99.90
12434;DHT22;6281;49.038;8.372;2024-01-11T09:42:26;-1.70;99.90
12434;DHT22;6281;49.038;8.372;2024-01-11T09:44:54;-1.90;99.90
12434;DHT22;6281;49.038;8.372;2024-01-11T09:47:21;-1.80;99.90
12434;DHT22;6281;49.038;8.372;2024-01-11T09:49:49;-1.60;99.90
12434;DHT22;6281;49.038;8.372;2024-01-11T09:52:20;-1.50;99.90
12434;DHT22;6281;49.038;8.372;2024-01-11T09:54:47;-1.60;99.90
12434;DHT22;6281;49.038;8.372;2024-01-11T09:57:18;-1.70;99.90
12434;DHT22;6281;49.038;8.372;2024-01-11T09:59:49;-1.60;99.90
12434;DHT22;6281;49.038;8.372;2024-01-11T10:02:17;-1.40;99.90
12434;DHT22;6281;49.038;8.372;2024-01-11T10:04:44;-1.20;99.90
12434;DHT22;6281;49.038;8.372;2024-01-11T10:07:11;-1.20;99.90
12434;DHT22;6281;49.038;8.372;2024-01-11T10:09:40;-1.20;99.90
12434;DHT22;6281;49.038;8.372;2024-01-11T10:12:08;-1.00;99.90
12434;DHT22;6281;49.038;8.372;2024-01-11T10:14:35;-0.70;99.90
12434;DHT22;6281;49.038;8.372;2024-01-11T10:17:03;-0.80;99.90
12434;DHT22;6281;49.038;8.372;2024-01-11T10:19:30;-0.70;99.90
12434;DHT22;6281;49.038;8.372;2024-01-11T10:21:57;-0.60;99.90
12434;DHT22;6281;49.038;8.372;2024-01-11T10:24:24;-0.30;99.90
12434;DHT22;6281;49.038;8.372;2024-01-11T10:26:55;-0.50;99.90
12434;DHT22;6281;49.038;8.372;2024-01-11T10:29:27;-0.30;99.90
12434;DHT22;6281;49.038;8.372;2024-01-11T10:31:54;-0.30;99.90
12434;DHT22;6281;49.038;8.372;2024-01-11T10:34:23;-0.20;99.90
12434;DHT22;6281;49.038;8.372;2024-01-11T10:36:50;-0.30;99.90
12434;DHT22;6281;49.038;8.372;2024-01-11T10:39:17;-0.20;99.90
12434;DHT22;6281;49.038;8.372;2024-01-11T10:41:47;-0.30;99.90
12434;DHT22;6281;49.038;8.372;2024-01-11T10:44:20;-0.40;99.90
12434;DHT22;6281;49.038;8.372;2024-01-11T10:46:48;-0.30;99.90
12434;DHT22;6281;49.038;8.372;2024-01-11T10:49:18;-0.40;99.90
12434;DHT22;6281;49.038;8.372;2024-01-11T10:51:49;-0.40;99.90
12434;DHT22;6281;49.038;8.372;2024-01-11T10:54:20;-0.40;99.90
12434;DHT22;6281;49.038;8.372;2024-01-11T10:56:48;-0.10;99.90
12434;DHT22;6281;49.038;8.372;2024-01-11T10:59:18;0.00;99.90
12434;DHT22;6281;49.038;8.372;2024-01-11T11:01:49;0.10;99.90
12434;DHT22;6281;49.038;8.372;2024-01-11T11:04:17;0.10;99.90
12434;DHT22;6281;49.038;8.372;2024-01-11T11:06:46;0.10;99.90
12434;DHT22;6281;49.038;8.372;2024-01-11T11:09:15;-0.10;99.90
12434;DHT22;6281;49.038;8.372;2024-01-11T11:11:43;0.00;99.90
12434;DHT22;6281;49.038;8.372;2024-01-11T11:14:15;0.00;99.90
12434;DHT22;6281;49.038;8.372;2024-01-11T11:16:47;-0.10;99.90
12434;DHT22;6281;49.038;8.372;2024-01-11T11:19:15;0.20;99.90
12434;DHT22;6281;49.038;8.372;2024-01-11T11:21:42;0.10;99.90
12434;DHT22;6281;49.038;8.372;2024-01-11T11:24:10;0.10;99.90
12434;DHT22;6281;49.038;8.372;2024-01-11T11:26:37;0.30;99.90
12434;DHT22;6281;49.038;8.372;2024-01-11T11:29:05;0.40;99.90
12434;DHT22;6281;49.038;8.372;2024-01-11T11:31:36;0.40;99.90
12434;DHT22;6281;49.038;8.372;2024-01-11T11:34:06;0.50;99.90
12434;DHT22;6281;49.038;8.372;2024-01-11T11:36:33;0.40;99.90
12434;DHT22;6281;49.038;8.372;2024-01-11T11:39:01;0.60;99.90
12434;DHT22;6281;49.038;8.372;2024-01-11T11:41:30;0.50;99.90
12434;DHT22;6281;49.038;8.372;2024-01-11T11:44:01;1.00;99.90
12434;DHT22;6281;49.038;8.372;2024-01-11T11:46:28;0.90;99.90
12434;DHT22;6281;49.038;8.372;2024-01-11T11:48:57;0.90;99.90
12434;DHT22;6281;49.038;8.372;2024-01-11T11:51:26;1.00;99.90
12434;DHT22;6281;49.038;8.372;2024-01-11T11:53:54;1.60;99.90
12434;DHT22;6281;49.038;8.372;2024-01-11T11:56:23;1.20;99.90
12434;DHT22;6281;49.038;8.372;2024-01-11T11:58:50;1.60;99.90
12434;DHT22;6281;49.038;8.372;2024-01-11T12:01:20;2.50;99.90
12434;DHT22;6281;49.038;8.372;2024-01-11T12:03:47;1.50;99.90
12434;DHT22;6281;49.038;8.372;2024-01-11T12:06:16;1.70;99.90
12434;DHT22;6281;49.038;8.372;2024-01-11T12:08:47;1.60;99.90
12434;DHT22;6281;49.038;8.372;2024-01-11T12:11:15;2.00;99.90
12434;DHT22;6281;49.038;8.372;2024-01-11T12:13:42;1.60;99.90
12434;DHT22;6281;49.038;8.372;2024-01-11T12:16:10;1.70;99.90
12434;DHT22;6281;49.038;8.372;2024-01-11T12:18:37;2.30;99.90
12434;DHT22;6281;49.038;8.372;2024-01-11T12:21:05;3.90;99.90
12434;DHT22;6281;49.038;8.372;2024-01-11T12:23:33;3.20;99.90
12434;DHT22;6281;49.038;8.372;2024-01-11T12:26:03;3.20;99.90
12434;DHT22;6281;49.038;8.372;2024-01-11T12:28:31;4.70;85.90
12434;DHT22;6281;49.038;8.372;2024-01-11T12:30:59;6.30;59.50
12434;DHT22;6281;49.038;8.372;2024-01-11T12:33:26;7.20;50.10
12434;DHT22;6281;49.038;8.372;2024-01-11T12:35:54;7.30;51.00
12434;DHT22;6281;49.038;8.372;2024-01-11T12:38:22;8.70;53.20
12434;DHT22;6281;49.038;8.372;2024-01-11T12:40:49;8.60;44.80
12434;DHT22;6281;49.038;8.372;2024-01-11T12:43:18;8.00;42.30
12434;DHT22;6281;49.038;8.372;2024-01-11T12:45:45;7.40;41.80
12434;DHT22;6281;49.038;8.372;2024-01-11T12:48:12;7.60;42.60
12434;DHT22;6281;49.038;8.372;2024-01-11T12:50:42;8.50;45.50
12434;DHT22;6281;49.038;8.372;2024-01-11T12:53:10;8.90;39.30
12434;DHT22;6281;49.038;8.372;2024-01-11T12:55:43;9.70;33.40
12434;DHT22;6281;49.038;8.372;2024-01-11T12:58:10;9.30;35.70
12434;DHT22;6281;49.038;8.372;2024-01-11T13:00:38;9.30;36.40
12434;DHT22;6281;49.038;8.372;2024-01-11T13:03:06;9.60;31.00
12434;DHT22;6281;49.038;8.372;2024-01-11T13:05:35;10.80;29.40
12434;DHT22;6281;49.038;8.372;2024-01-11T13:08:02;10.50;29.90
12434;DHT22;6281;49.038;8.372;2024-01-11T13:10:29;9.80;30.70
12434;DHT22;6281;49.038;8.372;2024-01-11T13:12:58;10.10;29.60
12434;DHT22;6281;49.038;8.372;2024-01-11T13:15:26;11.20;32.00
12434;DHT22;6281;49.038;8.372;2024-01-11T13:17:55;7.70;34.30
12434;DHT22;6281;49.038;8.372;2024-01-11T13:20:23;6.90;44.00
12434;DHT22;6281;49.038;8.372;2024-01-11T13:23:00;7.50;46.90
12434;DHT22;6281;49.038;8.372;2024-01-11T13:25:37;6.90;54.20
12434;DHT22;6281;49.038;8.372;2024-01-11T13:28:04;6.80;62.00
12434;DHT22;6281;49.038;8.372;2024-01-11T13:30:31;6.50;54.00
12434;DHT22;6281;49.038;8.372;2024-01-11T13:33:00;6.80;59.60
12434;DHT22;6281;49.038;8.372;2024-01-11T13:35:27;6.30;65.20
12434;DHT22;6281;49.038;8.372;2024-01-11T13:37:54;5.80;68.50
12434;DHT22;6281;49.038;8.372;2024-01-11T13:40:21;5.70;74.20
12434;DHT22;6281;49.038;8.372;2024-01-11T13:42:49;5.50;87.00
12434;DHT22;6281;49.038;8.372;2024-01-11T13:45:16;5.60;98.60
12434;DHT22;6281;49.038;8.372;2024-01-11T13:47:43;5.50;89.00
12434;DHT22;6281;49.038;8.372;2024-01-11T13:50:11;5.90;96.50
12434;DHT22;6281;49.038;8.372;2024-01-11T13:52:38;5.40;99.10
12434;DHT22;6281;49.038;8.372;2024-01-11T13:55:07;5.40;99.90
12434;DHT22;6281;49.038;8.372;2024-01-11T13:57:35;4.70;90.90
12434;DHT22;6281;49.038;8.372;2024-01-11T14:00:03;4.00;99.90
12434;DHT22;6281;49.038;8.372;2024-01-11T14:02:30;4.70;99.90
12434;DHT22;6281;49.038;8.372;2024-01-11T14:04:57;4.20;99.90
12434;DHT22;6281;49.038;8.372;2024-01-11T14:07:25;4.30;99.90
12434;DHT22;6281;49.038;8.372;2024-01-11T14:09:52;3.80;99.90
12434;DHT22;6281;49.038;8.372;2024-01-11T14:12:19;3.00;99.90
12434;DHT22;6281;49.038;8.372;2024-01-11T14:14:46;3.00;99.90
12434;DHT22;6281;49.038;8.372;2024-01-11T14:17:13;3.20;99.90
12434;DHT22;6281;49.038;8.372;2024-01-11T14:19:40;3.20;99.90
12434;DHT22;6281;49.038;8.372;2024-01-11T14:22:07;2.90;99.90
12434;DHT22;6281;49.038;8.372;2024-01-11T14:24:35;3.20;99.90
12434;DHT22;6281;49.038;8.372;2024-01-11T14:27:03;3.00;99.90
12434;DHT22;6281;49.038;8.372;2024-01-11T14:29:30;2.60;99.90
12434;DHT22;6281;49.038;8.372;2024-01-11T14:31:57;2.60;99.90
12434;DHT22;6281;49.038;8.372;2024-01-11T14:34:23;2.60;99.90
12434;DHT22;6281;49.038;8.372;2024-01-11T14:36:50;2.40;99.90
12434;DHT22;6281;49.038;8.372;2024-01-11T14:39:17;2.30;99.90
12434;DHT22;6281;49.038;8.372;2024-01-11T14:41:45;2.50;99.90
12434;DHT22;6281;49.038;8.372;2024-01-11T14:44:13;3.00;99.90
12434;DHT22;6281;49.038;8.372;2024-01-11T14:46:40;2.60;99.90
12434;DHT22;6281;49.038;8.372;2024-01-11T14:49:07;2.80;99.90
12434;DHT22;6281;49.038;8.372;2024-01-11T14:51:34;3.10;99.90
12434;DHT22;6281;49.038;8.372;2024-01-11T14:54:03;2.80;99.90
12434;DHT22;6281;49.038;8.372;2024-01-11T14:56:30;2.90;99.90
12434;DHT22;6281;49.038;8.372;2024-01-11T14:58:58;2.60;99.90
12434;DHT22;6281;49.038;8.372;2024-01-11T15:01:25;2.90;99.90
12434;DHT22;6281;49.038;8.372;2024-01-11T15:03:51;2.90;99.90
12434;DHT22;6281;49.038;8.372;2024-01-11T15:06:18;2.40;99.90
12434;DHT22;6281;49.038;8.372;2024-01-11T15:08:45;2.00;99.90
12434;DHT22;6281;49.038;8.372;2024-01-11T15:11:12;1.90;99.90
12434;DHT22;6281;49.038;8.372;2024-01-11T15:13:39;1.60;99.90
12434;DHT22;6281;49.038;8.372;2024-01-11T15:16:08;1.50;99.90
12434;DHT22;6281;49.038;8.372;2024-01-11T15:18:34;1.80;99.90
12434;DHT22;6281;49.038;8.372;2024-01-11T15:21:01;1.60;99.90
12434;DHT22;6281;49.038;8.372;2024-01-11T15:23:28;1.90;99.90
12434;DHT22;6281;49.038;8.372;2024-01-11T15:25:55;1.80;99.90
12434;DHT22;6281;49.038;8.372;2024-01-11T15:28:22;1.80;99.90
12434;DHT22;6281;49.038;8.372;2024-01-11T15:30:48;1.80;99.90
12434;DHT22;6281;49.038;8.372;2024-01-11T15:33:16;1.70;99.90
12434;DHT22;6281;49.038;8.372;2024-01-11T15:35:43;1.60;99.90
12434;DHT22;6281;49.038;8.372;2024-01-11T15:38:10;1.60;99.90
12434;DHT22;6281;49.038;8.372;2024-01-11T15:40:37;1.50;99.90
12434;DHT22;6281;49.038;8.372;2024-01-11T15:43:04;1.30;99.90
12434;DHT22;6281;49.038;8.372;2024-01-11T15:45:32;1.30;99.90
12434;DHT22;6281;49.038;8.372;2024-01-11T15:47:58;1.20;99.90
12434;DHT22;6281;49.038;8.372;2024-01-11T15:50:27;1.10;99.90
12434;DHT22;6281;49.038;8.372;2024-01-11T15:52:54;1.10;99.90